Demopolis, Alabama
Current Conditions -  °F | °C
As of 5:55 AM on Friday 19 Dec 2014 (Local Time) from KDYA Reporting Station
Overcast Overcast  
Wind Chill: 40°   Ceiling: 3200
Heat Index: 43°   Visibility: 10mi
Dew Point: 36°   Wind: 5mph
Humidity: 75%   Direction: 30°NNE
Pressure: 30.18"   Gusts: NA
Location:  32.5°N, 87.84°W
Report Text: KDYA 191155Z AUTO 03004KT 10SM OVC032 06/02 A3018 RMK AO2 T00610020 10062 20029
Loading
Personal Weather Stations






























Interactive Weather Map New forecast layout! Learn more

10-Day Weather Forecast

Advertisements
Track Severe Weather on mobile